createdAt,value
2019-05-13T00:05:14.923Z,2.90
2019-05-13T00:11:59.912Z,2.30
2019-05-13T00:18:44.930Z,2.30
2019-05-13T00:25:29.795Z,2.05
2019-05-13T00:32:14.860Z,2.30
2019-05-13T00:38:59.796Z,2.03
2019-05-13T00:45:45.323Z,2.33
2019-05-13T00:52:30.975Z,2.37
2019-05-13T00:59:15.949Z,2.20
2019-05-13T01:06:00.884Z,2.10
2019-05-13T01:12:45.892Z,2.77
2019-05-13T01:19:31.294Z,2.53
2019-05-13T01:26:16.312Z,2.15
2019-05-13T01:33:01.340Z,2.60
2019-05-13T01:39:46.277Z,2.63
2019-05-13T01:46:31.217Z,2.50
2019-05-13T01:53:16.411Z,2.87
2019-05-13T02:00:01.374Z,3.13
2019-05-13T02:06:46.604Z,2.72
2019-05-13T02:13:34.073Z,2.17
2019-05-13T02:20:18.131Z,2.60
2019-05-13T02:27:03.931Z,3.07
2019-05-13T02:33:48.925Z,2.47
2019-05-13T02:41:22.977Z,2.20
2019-05-13T02:48:07.887Z,2.20
2019-05-13T02:54:52.991Z,2.20
2019-05-13T03:01:37.970Z,2.40
2019-05-13T03:08:39.827Z,2.20
2019-05-13T03:15:13.068Z,2.40
2019-05-13T03:21:56.606Z,2.53
2019-05-13T03:28:43.715Z,2.90
2019-05-13T03:35:28.357Z,2.27
2019-05-13T03:42:14.134Z,3.03
2019-05-13T03:49:02.436Z,2.83
2019-05-13T03:55:49.226Z,3.13
2019-05-13T04:02:34.579Z,3.47
2019-05-13T04:09:29.771Z,3.50
2019-05-13T04:16:06.180Z,3.20
2019-05-13T04:22:53.009Z,3.03
2019-05-13T04:29:37.705Z,3.40
2019-05-13T04:36:23.684Z,3.10
2019-05-13T04:43:13.055Z,3.00
2019-05-13T04:49:57.091Z,3.10
2019-05-13T04:56:42.373Z,3.13
2019-05-13T05:03:46.784Z,2.80
2019-05-13T05:11:06.490Z,3.10
2019-05-13T05:18:27.716Z,2.27
2019-05-13T05:25:18.336Z,2.43
2019-05-13T05:32:24.926Z,2.63
2019-05-13T05:39:26.166Z,1.70
2019-05-13T05:46:13.327Z,1.90
2019-05-13T05:53:01.900Z,1.92
2019-05-13T05:59:48.417Z,1.72
2019-05-13T06:06:33.590Z,1.90
2019-05-13T06:13:18.583Z,1.92
2019-05-13T06:20:05.445Z,1.92
2019-05-13T06:26:52.067Z,1.40
2019-05-13T06:33:37.879Z,2.05
2019-05-13T06:40:22.876Z,1.70
2019-05-13T06:47:07.730Z,2.27
2019-05-13T06:53:52.583Z,1.95
2019-05-13T07:00:37.511Z,1.70
2019-05-13T07:07:22.375Z,1.92
2019-05-13T07:14:07.320Z,1.60
2019-05-13T07:20:53.042Z,1.80
2019-05-13T07:27:38.189Z,1.75
2019-05-13T07:34:24.612Z,1.50
2019-05-13T07:41:11.991Z,2.00
2019-05-13T07:47:56.491Z,1.98
2019-05-13T07:54:42.047Z,1.98
2019-05-13T08:01:27.144Z,2.33
2019-05-13T08:08:12.522Z,1.67
2019-05-13T08:14:57.467Z,1.70
2019-05-13T08:21:42.471Z,2.13
2019-05-13T08:28:27.411Z,2.58
2019-05-13T08:35:12.783Z,2.08
2019-05-13T08:42:11.708Z,2.10
2019-05-13T08:48:45.666Z,1.67
2019-05-13T08:55:32.158Z,2.00
2019-05-13T09:02:17.329Z,1.70
2019-05-13T09:09:02.568Z,2.20
2019-05-13T09:15:47.799Z,1.80
2019-05-13T09:22:32.825Z,2.00
2019-05-13T09:29:17.851Z,1.70
2019-05-13T09:36:02.726Z,1.98
2019-05-13T09:42:51.927Z,1.30
2019-05-13T09:49:34.522Z,1.27
2019-05-13T09:56:19.446Z,1.60
2019-05-13T10:03:04.462Z,1.50
2019-05-13T10:09:51.805Z,1.42
2019-05-13T10:16:36.074Z,1.70
2019-05-13T10:23:22.110Z,1.47
2019-05-13T10:30:08.114Z,1.60
2019-05-13T10:36:53.679Z,1.70
2019-05-13T10:43:42.458Z,1.35
2019-05-13T10:50:27.723Z,1.95
2019-05-13T10:57:13.556Z,1.60
2019-05-13T11:03:58.370Z,1.57
2019-05-13T11:10:43.235Z,2.00
2019-05-13T11:17:30.933Z,1.70
2019-05-13T11:24:14.879Z,2.03
2019-05-13T11:31:02.870Z,1.07
2019-05-13T11:37:46.524Z,1.40
2019-05-13T11:44:32.312Z,1.20
2019-05-13T11:51:17.410Z,1.52
2019-05-13T11:58:03.065Z,1.20
2019-05-13T12:04:48.257Z,1.20
2019-05-13T12:11:33.557Z,1.62
2019-05-13T12:18:23.067Z,1.60
2019-05-13T12:25:06.908Z,1.40
2019-05-13T12:31:52.786Z,1.53
2019-05-13T12:38:37.936Z,1.70
2019-05-13T12:45:23.491Z,1.43
2019-05-13T12:52:08.530Z,1.60
2019-05-13T12:58:53.529Z,1.77
2019-05-13T13:05:43.305Z,1.65
2019-05-13T13:12:34.596Z,1.30
2019-05-13T13:19:15.066Z,1.57
2019-05-13T13:26:03.021Z,1.83
2019-05-13T13:32:47.204Z,1.60
2019-05-13T13:39:32.487Z,1.60
2019-05-13T13:46:36.960Z,1.40
2019-05-13T13:53:04.406Z,0.97
2019-05-13T14:00:19.176Z,1.43
2019-05-13T14:13:22.623Z,1.50
2019-05-13T14:20:08.315Z,1.57
2019-05-13T14:26:53.259Z,1.27
2019-05-13T14:33:38.580Z,1.50
2019-05-13T14:40:23.652Z,2.40
2019-05-13T14:47:08.716Z,1.60
2019-05-13T14:53:53.819Z,1.50
2019-05-13T15:00:38.743Z,1.30
2019-05-13T15:07:23.599Z,1.30
2019-05-13T15:14:08.542Z,1.30
2019-05-13T15:20:53.395Z,1.37
2019-05-13T15:27:38.250Z,1.17
2019-05-13T15:34:23.378Z,1.20
2019-05-13T15:41:11.744Z,1.80
2019-05-13T15:47:54.914Z,1.47
2019-05-13T15:54:41.472Z,1.50
2019-05-13T16:01:26.467Z,1.60
2019-05-13T16:08:12.142Z,1.40
2019-05-13T16:14:57.214Z,1.45
2019-05-13T16:21:42.074Z,1.52
2019-05-13T16:28:26.926Z,1.15
2019-05-13T16:35:13.578Z,1.73
2019-05-13T16:41:58.695Z,1.52
2019-05-13T16:48:43.561Z,1.30
2019-05-13T16:55:28.482Z,1.30
2019-05-13T17:02:13.523Z,1.40
2019-05-13T17:08:58.383Z,1.10
2019-05-13T17:15:43.236Z,1.62
2019-05-13T17:22:28.197Z,1.40
2019-05-13T17:29:13.046Z,1.50
2019-05-13T17:35:57.894Z,1.43
2019-05-13T17:42:42.763Z,1.30
2019-05-13T17:49:27.619Z,1.20
2019-05-13T17:56:12.547Z,1.63
2019-05-13T18:02:57.476Z,1.40
2019-05-13T18:09:42.536Z,1.70
2019-05-13T18:16:27.437Z,1.60
2019-05-13T18:23:12.293Z,1.07
2019-05-13T18:29:57.234Z,1.30
2019-05-13T18:36:42.667Z,1.47
2019-05-13T18:43:29.195Z,1.43
2019-05-13T18:50:14.216Z,1.87
2019-05-13T18:57:01.392Z,1.70
2019-05-13T19:03:45.702Z,1.87
2019-05-13T19:10:31.320Z,1.50
2019-05-13T19:17:16.246Z,2.00
2019-05-13T19:24:02.034Z,2.17
2019-05-13T19:30:47.050Z,1.97
2019-05-13T19:37:31.937Z,1.77
2019-05-13T19:44:17.334Z,1.80
2019-05-13T19:51:02.221Z,2.07
2019-05-13T19:57:47.159Z,2.03
2019-05-13T20:04:32.155Z,2.83
2019-05-13T20:11:17.055Z,3.00
2019-05-13T20:18:01.986Z,2.50
2019-05-13T20:24:47.006Z,2.80
2019-05-13T20:31:32.260Z,2.50
2019-05-13T20:38:17.143Z,2.80
2019-05-13T20:45:02.557Z,2.33
2019-05-13T20:51:48.612Z,2.77
2019-05-13T20:58:33.530Z,2.70
2019-05-13T21:05:21.406Z,2.10
2019-05-13T21:12:05.925Z,1.97
2019-05-13T21:18:50.946Z,2.87
2019-05-13T21:25:36.204Z,2.47
2019-05-13T21:32:21.428Z,2.00
2019-05-13T21:39:07.579Z,2.40
2019-05-13T21:45:52.857Z,2.00
2019-05-13T21:52:37.768Z,2.10
2019-05-13T21:59:23.328Z,2.40
2019-05-13T22:06:10.963Z,2.05
2019-05-13T22:12:55.272Z,2.10
2019-05-13T22:19:41.958Z,1.90
2019-05-13T22:26:26.683Z,2.62
2019-05-13T22:33:12.321Z,1.97
2019-05-13T22:39:57.302Z,2.07
2019-05-13T22:46:42.143Z,1.97
2019-05-13T22:53:27.226Z,2.43
2019-05-13T23:00:13.381Z,2.30
2019-05-13T23:07:01.293Z,2.27
2019-05-13T23:13:46.469Z,2.20
2019-05-13T23:20:31.878Z,2.27
2019-05-13T23:27:17.414Z,2.10
2019-05-13T23:34:02.502Z,2.10
2019-05-13T23:40:47.439Z,2.13
2019-05-13T23:47:32.419Z,2.40
2019-05-13T23:54:17.360Z,2.40
